sensor_id;sensor_type;location;lat;lon;timestamp;temperature;humidity
56044;DHT22;41912;51.022;3.664;2024-01-10T00:01:43;-1.30;94.10
56044;DHT22;41912;51.022;3.664;2024-01-10T00:04:08;-1.40;94.10
56044;DHT22;41912;51.022;3.664;2024-01-10T00:06:34;-1.40;94.20
56044;DHT22;41912;51.022;3.664;2024-01-10T00:08:59;-1.40;94.20
56044;DHT22;41912;51.022;3.664;2024-01-10T00:11:25;-1.50;94.10
56044;DHT22;41912;51.022;3.664;2024-01-10T00:13:51;-1.50;94.20
56044;DHT22;41912;51.022;3.664;2024-01-10T00:16:16;-1.50;94.30
56044;DHT22;41912;51.022;3.664;2024-01-10T00:18:42;-1.40;94.30
56044;DHT22;41912;51.022;3.664;2024-01-10T00:21:08;-1.40;94.30
56044;DHT22;41912;51.022;3.664;2024-01-10T00:23:33;-1.50;94.30
56044;DHT22;41912;51.022;3.664;2024-01-10T00:25:59;-1.50;94.20
56044;DHT22;41912;51.022;3.664;2024-01-10T00:28:25;-1.50;94.20
56044;DHT22;41912;51.022;3.664;2024-01-10T00:30:51;-1.50;94.20
56044;DHT22;41912;51.022;3.664;2024-01-10T00:33:17;-1.50;94.20
56044;DHT22;41912;51.022;3.664;2024-01-10T00:35:43;-1.50;94.30
56044;DHT22;41912;51.022;3.664;2024-01-10T00:38:09;-1.50;94.30
56044;DHT22;41912;51.022;3.664;2024-01-10T00:40:35;-1.60;94.40
56044;DHT22;41912;51.022;3.664;2024-01-10T00:43:01;-1.50;94.50
56044;DHT22;41912;51.022;3.664;2024-01-10T00:45:26;-1.50;94.50
56044;DHT22;41912;51.022;3.664;2024-01-10T00:47:52;-1.50;94.40
56044;DHT22;41912;51.022;3.664;2024-01-10T00:50:18;-1.60;94.50
56044;DHT22;41912;51.022;3.664;2024-01-10T00:52:47;-1.60;94.80
56044;DHT22;41912;51.022;3.664;2024-01-10T00:55:12;-1.60;94.60
56044;DHT22;41912;51.022;3.664;2024-01-10T00:57:38;-1.60;94.60
56044;DHT22;41912;51.022;3.664;2024-01-10T01:00:08;-1.60;94.60
56044;DHT22;41912;51.022;3.664;2024-01-10T01:02:34;-1.60;94.70
56044;DHT22;41912;51.022;3.664;2024-01-10T01:05:01;-1.60;94.70
56044;DHT22;41912;51.022;3.664;2024-01-10T01:07:27;-1.70;94.80
56044;DHT22;41912;51.022;3.664;2024-01-10T01:09:53;-1.70;94.90
56044;DHT22;41912;51.022;3.664;2024-01-10T01:12:18;-1.70;94.90
56044;DHT22;41912;51.022;3.664;2024-01-10T01:14:44;-1.70;94.90
56044;DHT22;41912;51.022;3.664;2024-01-10T01:17:10;-1.70;95.00
56044;DHT22;41912;51.022;3.664;2024-01-10T01:19:36;-1.70;95.00
56044;DHT22;41912;51.022;3.664;2024-01-10T01:22:02;-1.70;95.00
56044;DHT22;41912;51.022;3.664;2024-01-10T01:24:28;-1.80;95.00
56044;DHT22;41912;51.022;3.664;2024-01-10T01:26:53;-1.70;95.00
56044;DHT22;41912;51.022;3.664;2024-01-10T01:29:20;-1.70;94.90
56044;DHT22;41912;51.022;3.664;2024-01-10T01:31:45;-1.70;94.90
56044;DHT22;41912;51.022;3.664;2024-01-10T01:34:11;-1.70;94.90
56044;DHT22;41912;51.022;3.664;2024-01-10T01:36:37;-1.80;95.00
56044;DHT22;41912;51.022;3.664;2024-01-10T01:39:03;-1.80;95.00
56044;DHT22;41912;51.022;3.664;2024-01-10T01:41:29;-1.80;95.00
56044;DHT22;41912;51.022;3.664;2024-01-10T01:43:54;-1.80;95.10
56044;DHT22;41912;51.022;3.664;2024-01-10T01:46:20;-1.80;95.10
56044;DHT22;41912;51.022;3.664;2024-01-10T01:48:46;-1.80;95.10
56044;DHT22;41912;51.022;3.664;2024-01-10T01:51:12;-1.80;95.00
56044;DHT22;41912;51.022;3.664;2024-01-10T01:53:40;-1.80;95.00
56044;DHT22;41912;51.022;3.664;2024-01-10T01:56:07;-1.90;95.10
56044;DHT22;41912;51.022;3.664;2024-01-10T01:58:33;-1.90;95.20
56044;DHT22;41912;51.022;3.664;2024-01-10T02:01:04;-1.90;95.30
56044;DHT22;41912;51.022;3.664;2024-01-10T02:03:33;-1.90;95.30
56044;DHT22;41912;51.022;3.664;2024-01-10T02:06:00;-1.90;95.40
56044;DHT22;41912;51.022;3.664;2024-01-10T02:08:29;-1.90;95.30
56044;DHT22;41912;51.022;3.664;2024-01-10T02:10:55;-2.00;95.60
56044;DHT22;41912;51.022;3.664;2024-01-10T02:13:21;-2.00;95.80
56044;DHT22;41912;51.022;3.664;2024-01-10T02:15:47;-1.90;95.50
56044;DHT22;41912;51.022;3.664;2024-01-10T02:18:13;-2.00;95.50
56044;DHT22;41912;51.022;3.664;2024-01-10T02:20:42;-2.00;95.40
56044;DHT22;41912;51.022;3.664;2024-01-10T02:23:07;-2.00;95.50
56044;DHT22;41912;51.022;3.664;2024-01-10T02:25:34;-2.00;95.50
56044;DHT22;41912;51.022;3.664;2024-01-10T02:28:00;-2.00;95.80
56044;DHT22;41912;51.022;3.664;2024-01-10T02:30:26;-2.00;95.90
56044;DHT22;41912;51.022;3.664;2024-01-10T02:32:51;-2.00;95.60
56044;DHT22;41912;51.022;3.664;2024-01-10T02:35:17;-2.00;95.50
56044;DHT22;41912;51.022;3.664;2024-01-10T02:37:42;-2.10;95.60
56044;DHT22;41912;51.022;3.664;2024-01-10T02:40:09;-2.10;95.60
56044;DHT22;41912;51.022;3.664;2024-01-10T02:42:35;-2.10;95.70
56044;DHT22;41912;51.022;3.664;2024-01-10T02:45:01;-2.10;95.70
56044;DHT22;41912;51.022;3.664;2024-01-10T02:47:27;-2.10;95.60
56044;DHT22;41912;51.022;3.664;2024-01-10T02:49:54;-2.10;95.60
56044;DHT22;41912;51.022;3.664;2024-01-10T02:52:20;-2.10;95.60
56044;DHT22;41912;51.022;3.664;2024-01-10T02:54:46;-2.20;95.70
56044;DHT22;41912;51.022;3.664;2024-01-10T02:57:12;-2.20;95.70
56044;DHT22;41912;51.022;3.664;2024-01-10T02:59:38;-2.20;95.70
56044;DHT22;41912;51.022;3.664;2024-01-10T03:02:03;-2.20;95.70
56044;DHT22;41912;51.022;3.664;2024-01-10T03:04:29;-2.20;95.70
56044;DHT22;41912;51.022;3.664;2024-01-10T03:06:55;-2.20;95.70
56044;DHT22;41912;51.022;3.664;2024-01-10T03:09:20;-2.20;95.60
56044;DHT22;41912;51.022;3.664;2024-01-10T03:11:46;-2.20;95.60
56044;DHT22;41912;51.022;3.664;2024-01-10T03:14:11;-2.20;95.60
56044;DHT22;41912;51.022;3.664;2024-01-10T03:16:37;-2.20;95.80
56044;DHT22;41912;51.022;3.664;2024-01-10T03:19:03;-2.30;95.70
56044;DHT22;41912;51.022;3.664;2024-01-10T03:21:29;-2.30;95.70
56044;DHT22;41912;51.022;3.664;2024-01-10T03:23:59;-2.30;95.80
56044;DHT22;41912;51.022;3.664;2024-01-10T03:26:25;-2.30;95.80
56044;DHT22;41912;51.022;3.664;2024-01-10T03:28:51;-2.30;95.80
56044;DHT22;41912;51.022;3.664;2024-01-10T03:31:17;-2.30;95.90
56044;DHT22;41912;51.022;3.664;2024-01-10T03:33:43;-2.30;95.90
56044;DHT22;41912;51.022;3.664;2024-01-10T03:36:12;-2.30;95.90
56044;DHT22;41912;51.022;3.664;2024-01-10T03:38:39;-2.30;95.90
56044;DHT22;41912;51.022;3.664;2024-01-10T03:41:04;-2.30;95.80
56044;DHT22;41912;51.022;3.664;2024-01-10T03:43:30;-2.40;95.80
56044;DHT22;41912;51.022;3.664;2024-01-10T03:45:56;-2.40;95.80
56044;DHT22;41912;51.022;3.664;2024-01-10T03:48:22;-2.40;95.90
56044;DHT22;41912;51.022;3.664;2024-01-10T03:50:48;-2.40;95.90
56044;DHT22;41912;51.022;3.664;2024-01-10T03:53:13;-2.40;96.00
56044;DHT22;41912;51.022;3.664;2024-01-10T03:55:39;-2.40;96.00
56044;DHT22;41912;51.022;3.664;2024-01-10T03:58:05;-2.40;96.00
56044;DHT22;41912;51.022;3.664;2024-01-10T04:00:30;-2.40;96.00
56044;DHT22;41912;51.022;3.664;2024-01-10T04:02:56;-2.40;95.90
56044;DHT22;41912;51.022;3.664;2024-01-10T04:05:22;-2.40;96.00
56044;DHT22;41912;51.022;3.664;2024-01-10T04:07:52;-2.50;96.00
56044;DHT22;41912;51.022;3.664;2024-01-10T04:10:18;-2.50;96.10
56044;DHT22;41912;51.022;3.664;2024-01-10T04:12:44;-2.50;96.10
56044;DHT22;41912;51.022;3.664;2024-01-10T04:15:11;-2.50;96.10
56044;DHT22;41912;51.022;3.664;2024-01-10T04:17:36;-2.50;96.10
56044;DHT22;41912;51.022;3.664;2024-01-10T04:20:03;-2.50;96.30
56044;DHT22;41912;51.022;3.664;2024-01-10T04:22:29;-2.50;96.20
56044;DHT22;41912;51.022;3.664;2024-01-10T04:24:58;-2.50;96.10
56044;DHT22;41912;51.022;3.664;2024-01-10T04:27:24;-2.50;96.20
56044;DHT22;41912;51.022;3.664;2024-01-10T04:29:50;-2.50;96.20
56044;DHT22;41912;51.022;3.664;2024-01-10T04:32:15;-2.50;96.50
56044;DHT22;41912;51.022;3.664;2024-01-10T04:34:41;-2.50;96.10
56044;DHT22;41912;51.022;3.664;2024-01-10T04:37:06;-2.50;96.10
56044;DHT22;41912;51.022;3.664;2024-01-10T04:39:35;-2.50;96.10
56044;DHT22;41912;51.022;3.664;2024-01-10T04:42:03;-2.60;96.10
56044;DHT22;41912;51.022;3.664;2024-01-10T04:44:29;-2.50;96.10
56044;DHT22;41912;51.022;3.664;2024-01-10T04:46:55;-2.50;96.40
56044;DHT22;41912;51.022;3.664;2024-01-10T04:49:20;-2.50;96.00
56044;DHT22;41912;51.022;3.664;2024-01-10T04:51:47;-2.50;96.00
56044;DHT22;41912;51.022;3.664;2024-01-10T04:54:13;-2.60;95.90
56044;DHT22;41912;51.022;3.664;2024-01-10T04:56:39;-2.60;96.10
56044;DHT22;41912;51.022;3.664;2024-01-10T04:59:05;-2.60;96.10
56044;DHT22;41912;51.022;3.664;2024-01-10T05:01:31;-2.60;96.20
56044;DHT22;41912;51.022;3.664;2024-01-10T05:03:57;-2.60;96.10
56044;DHT22;41912;51.022;3.664;2024-01-10T05:06:23;-2.60;96.00
56044;DHT22;41912;51.022;3.664;2024-01-10T05:08:49;-2.60;96.30
56044;DHT22;41912;51.022;3.664;2024-01-10T05:11:15;-2.60;96.00
56044;DHT22;41912;51.022;3.664;2024-01-10T05:13:41;-2.50;96.00
56044;DHT22;41912;51.022;3.664;2024-01-10T05:16:07;-2.50;95.90
56044;DHT22;41912;51.022;3.664;2024-01-10T05:18:33;-2.50;95.90
56044;DHT22;41912;51.022;3.664;2024-01-10T05:20:59;-2.60;95.90
56044;DHT22;41912;51.022;3.664;2024-01-10T05:23:25;-2.60;95.90
56044;DHT22;41912;51.022;3.664;2024-01-10T05:25:51;-2.60;96.00
56044;DHT22;41912;51.022;3.664;2024-01-10T05:28:17;-2.60;96.00
56044;DHT22;41912;51.022;3.664;2024-01-10T05:30:43;-2.60;96.00
56044;DHT22;41912;51.022;3.664;2024-01-10T05:33:09;-2.60;95.90
56044;DHT22;41912;51.022;3.664;2024-01-10T05:35:38;-2.60;95.90
56044;DHT22;41912;51.022;3.664;2024-01-10T05:38:04;-2.60;96.00
56044;DHT22;41912;51.022;3.664;2024-01-10T05:40:29;-2.60;95.90
56044;DHT22;41912;51.022;3.664;2024-01-10T05:42:58;-2.70;96.00
56044;DHT22;41912;51.022;3.664;2024-01-10T05:45:27;-2.70;96.10
56044;DHT22;41912;51.022;3.664;2024-01-10T05:47:54;-2.70;96.10
56044;DHT22;41912;51.022;3.664;2024-01-10T05:50:20;-2.70;96.00
56044;DHT22;41912;51.022;3.664;2024-01-10T05:52:46;-2.70;96.00
56044;DHT22;41912;51.022;3.664;2024-01-10T05:55:12;-2.70;96.00
56044;DHT22;41912;51.022;3.664;2024-01-10T05:57:38;-2.70;96.00
56044;DHT22;41912;51.022;3.664;2024-01-10T06:00:04;-2.70;95.90
56044;DHT22;41912;51.022;3.664;2024-01-10T06:02:30;-2.70;96.00
56044;DHT22;41912;51.022;3.664;2024-01-10T06:04:56;-2.70;96.00
56044;DHT22;41912;51.022;3.664;2024-01-10T06:07:22;-2.70;96.00
56044;DHT22;41912;51.022;3.664;2024-01-10T06:09:47;-2.70;95.90
56044;DHT22;41912;51.022;3.664;2024-01-10T06:12:13;-2.70;95.90
56044;DHT22;41912;51.022;3.664;2024-01-10T06:14:39;-2.70;96.00
56044;DHT22;41912;51.022;3.664;2024-01-10T06:17:05;-2.70;96.10
56044;DHT22;41912;51.022;3.664;2024-01-10T06:19:31;-2.70;96.00
56044;DHT22;41912;51.022;3.664;2024-01-10T06:22:00;-2.70;96.00
56044;DHT22;41912;51.022;3.664;2024-01-10T06:24:26;-2.70;96.10
56044;DHT22;41912;51.022;3.664;2024-01-10T06:26:52;-2.70;96.10
56044;DHT22;41912;51.022;3.664;2024-01-10T06:29:18;-2.70;96.10
56044;DHT22;41912;51.022;3.664;2024-01-10T06:31:44;-2.70;96.10
56044;DHT22;41912;51.022;3.664;2024-01-10T06:34:10;-2.70;96.20
56044;DHT22;41912;51.022;3.664;2024-01-10T06:36:36;-2.70;96.20
56044;DHT22;41912;51.022;3.664;2024-01-10T06:39:02;-2.70;96.20
56044;DHT22;41912;51.022;3.664;2024-01-10T06:41:27;-2.70;96.30
56044;DHT22;41912;51.022;3.664;2024-01-10T06:43:53;-2.70;96.40
56044;DHT22;41912;51.022;3.664;2024-01-10T06:46:19;-2.70;96.30
56044;DHT22;41912;51.022;3.664;2024-01-10T06:48:45;-2.70;96.30
56044;DHT22;41912;51.022;3.664;2024-01-10T06:51:12;-2.70;96.40
56044;DHT22;41912;51.022;3.664;2024-01-10T06:53:38;-2.60;96.50
56044;DHT22;41912;51.022;3.664;2024-01-10T06:56:05;-2.70;96.40
56044;DHT22;41912;51.022;3.664;2024-01-10T06:58:31;-2.70;96.50
56044;DHT22;41912;51.022;3.664;2024-01-10T07:00:56;-2.60;96.60
56044;DHT22;41912;51.022;3.664;2024-01-10T07:03:22;-2.60;96.60
56044;DHT22;41912;51.022;3.664;2024-01-10T07:05:48;-2.60;96.70
56044;DHT22;41912;51.022;3.664;2024-01-10T07:08:14;-2.60;96.80
56044;DHT22;41912;51.022;3.664;2024-01-10T07:10:40;-2.70;96.80
56044;DHT22;41912;51.022;3.664;2024-01-10T07:13:05;-2.70;96.80
56044;DHT22;41912;51.022;3.664;2024-01-10T07:15:32;-2.70;96.80
56044;DHT22;41912;51.022;3.664;2024-01-10T07:17:57;-2.70;96.90
56044;DHT22;41912;51.022;3.664;2024-01-10T07:20:23;-2.70;96.90
56044;DHT22;41912;51.022;3.664;2024-01-10T07:22:50;-2.70;96.90
56044;DHT22;41912;51.022;3.664;2024-01-10T07:25:17;-2.70;97.00
56044;DHT22;41912;51.022;3.664;2024-01-10T07:27:43;-2.70;97.00
56044;DHT22;41912;51.022;3.664;2024-01-10T07:30:09;-2.70;97.00
56044;DHT22;41912;51.022;3.664;2024-01-10T07:32:42;-2.70;97.10
56044;DHT22;41912;51.022;3.664;2024-01-10T07:35:09;-2.70;97.10
56044;DHT22;41912;51.022;3.664;2024-01-10T07:37:41;-2.70;97.10
56044;DHT22;41912;51.022;3.664;2024-01-10T07:40:08;-2.80;97.10
56044;DHT22;41912;51.022;3.664;2024-01-10T07:42:34;-2.80;97.00
56044;DHT22;41912;51.022;3.664;2024-01-10T07:45:00;-2.80;97.10
56044;DHT22;41912;51.022;3.664;2024-01-10T07:47:33;-2.80;97.10
56044;DHT22;41912;51.022;3.664;2024-01-10T07:50:09;-2.80;97.10
56044;DHT22;41912;51.022;3.664;2024-01-10T07:52:36;-2.80;97.20
56044;DHT22;41912;51.022;3.664;2024-01-10T07:55:02;-2.80;97.20
56044;DHT22;41912;51.022;3.664;2024-01-10T07:57:30;-2.80;97.20
56044;DHT22;41912;51.022;3.664;2024-01-10T07:59:56;-2.80;97.30
56044;DHT22;41912;51.022;3.664;2024-01-10T08:02:22;-2.80;97.40
56044;DHT22;41912;51.022;3.664;2024-01-10T08:04:47;-2.80;97.40
56044;DHT22;41912;51.022;3.664;2024-01-10T08:07:13;-2.80;97.50
56044;DHT22;41912;51.022;3.664;2024-01-10T08:09:39;-2.80;97.50
56044;DHT22;41912;51.022;3.664;2024-01-10T08:12:05;-2.80;97.50
56044;DHT22;41912;51.022;3.664;2024-01-10T08:14:31;-2.80;97.50
56044;DHT22;41912;51.022;3.664;2024-01-10T08:16:56;-2.80;97.50
56044;DHT22;41912;51.022;3.664;2024-01-10T08:19:27;-2.80;97.60
56044;DHT22;41912;51.022;3.664;2024-01-10T08:21:53;-2.80;97.70
56044;DHT22;41912;51.022;3.664;2024-01-10T08:24:20;-2.70;97.80
56044;DHT22;41912;51.022;3.664;2024-01-10T08:26:49;-2.80;97.70
56044;DHT22;41912;51.022;3.664;2024-01-10T08:29:18;-2.80;97.70
56044;DHT22;41912;51.022;3.664;2024-01-10T08:31:45;-2.80;97.70
56044;DHT22;41912;51.022;3.664;2024-01-10T08:34:10;-2.70;97.70
56044;DHT22;41912;51.022;3.664;2024-01-10T08:36:36;-2.80;97.70
56044;DHT22;41912;51.022;3.664;2024-01-10T08:39:02;-2.80;97.70
56044;DHT22;41912;51.022;3.664;2024-01-10T08:41:29;-2.80;97.70
56044;DHT22;41912;51.022;3.664;2024-01-10T08:43:55;-2.80;97.70
56044;DHT22;41912;51.022;3.664;2024-01-10T08:46:21;-2.80;97.80
56044;DHT22;41912;51.022;3.664;2024-01-10T08:48:47;-2.70;97.90
56044;DHT22;41912;51.022;3.664;2024-01-10T08:51:13;-2.70;98.00
56044;DHT22;41912;51.022;3.664;2024-01-10T08:53:42;-2.70;98.00
56044;DHT22;41912;51.022;3.664;2024-01-10T08:56:08;-2.70;98.00
56044;DHT22;41912;51.022;3.664;2024-01-10T08:58:33;-2.70;98.20
56044;DHT22;41912;51.022;3.664;2024-01-10T09:00:59;-2.60;98.30
56044;DHT22;41912;51.022;3.664;2024-01-10T09:03:25;-2.60;98.50
56044;DHT22;41912;51.022;3.664;2024-01-10T09:05:50;-2.60;98.20
56044;DHT22;41912;51.022;3.664;2024-01-10T09:08:16;-2.60;98.30
56044;DHT22;41912;51.022;3.664;2024-01-10T09:10:42;-2.50;98.20
56044;DHT22;41912;51.022;3.664;2024-01-10T09:13:08;-2.50;98.20
56044;DHT22;41912;51.022;3.664;2024-01-10T09:15:34;-2.40;98.30
56044;DHT22;41912;51.022;3.664;2024-01-10T09:18:00;-2.40;98.20
56044;DHT22;41912;51.022;3.664;2024-01-10T09:20:25;-2.40;98.00
56044;DHT22;41912;51.022;3.664;2024-01-10T09:22:51;-2.30;98.00
56044;DHT22;41912;51.022;3.664;2024-01-10T09:25:17;-2.30;98.10
56044;DHT22;41912;51.022;3.664;2024-01-10T09:27:42;-2.20;98.00
56044;DHT22;41912;51.022;3.664;2024-01-10T09:30:10;-2.10;97.90
56044;DHT22;41912;51.022;3.664;2024-01-10T09:32:36;-2.10;98.10
56044;DHT22;41912;51.022;3.664;2024-01-10T09:35:03;-2.10;98.00
56044;DHT22;41912;51.022;3.664;2024-01-10T09:37:29;-2.10;98.00
56044;DHT22;41912;51.022;3.664;2024-01-10T09:39:55;-2.00;97.90
56044;DHT22;41912;51.022;3.664;2024-01-10T09:42:21;-2.00;97.50
56044;DHT22;41912;51.022;3.664;2024-01-10T09:44:51;-2.00;97.60
56044;DHT22;41912;51.022;3.664;2024-01-10T09:47:18;-1.90;97.70
56044;DHT22;41912;51.022;3.664;2024-01-10T09:49:45;-1.80;97.80
56044;DHT22;41912;51.022;3.664;2024-01-10T09:52:20;-1.80;97.80
56044;DHT22;41912;51.022;3.664;2024-01-10T09:54:48;-1.70;97.60
56044;DHT22;41912;51.022;3.664;2024-01-10T09:57:16;-1.70;97.70
56044;DHT22;41912;51.022;3.664;2024-01-10T09:59:43;-1.60;97.60
56044;DHT22;41912;51.022;3.664;2024-01-10T10:02:09;-1.60;97.30
56044;DHT22;41912;51.022;3.664;2024-01-10T10:04:35;-1.50;97.30
56044;DHT22;41912;51.022;3.664;2024-01-10T10:07:02;-1.50;97.30
56044;DHT22;41912;51.022;3.664;2024-01-10T10:09:28;-1.40;97.10
56044;DHT22;41912;51.022;3.664;2024-01-10T10:11:56;-1.30;97.20
56044;DHT22;41912;51.022;3.664;2024-01-10T10:14:23;-1.30;97.00
56044;DHT22;41912;51.022;3.664;2024-01-10T10:16:51;-1.30;97.00
56044;DHT22;41912;51.022;3.664;2024-01-10T10:19:24;-1.20;96.90
56044;DHT22;41912;51.022;3.664;2024-01-10T10:21:50;-1.20;96.90
56044;DHT22;41912;51.022;3.664;2024-01-10T10:24:16;-1.10;96.90
56044;DHT22;41912;51.022;3.664;2024-01-10T10:26:42;-1.10;97.10
56044;DHT22;41912;51.022;3.664;2024-01-10T10:29:09;-1.00;96.80
56044;DHT22;41912;51.022;3.664;2024-01-10T10:31:35;-1.00;96.70
56044;DHT22;41912;51.022;3.664;2024-01-10T10:34:01;-0.90;96.50
56044;DHT22;41912;51.022;3.664;2024-01-10T10:36:33;-0.90;96.30
56044;DHT22;41912;51.022;3.664;2024-01-10T10:38:59;-0.90;96.20
56044;DHT22;41912;51.022;3.664;2024-01-10T10:41:31;-0.80;96.30
56044;DHT22;41912;51.022;3.664;2024-01-10T10:43:57;-0.70;96.40
56044;DHT22;41912;51.022;3.664;2024-01-10T10:46:23;-0.70;96.40
56044;DHT22;41912;51.022;3.664;2024-01-10T10:48:52;-0.70;96.10
56044;DHT22;41912;51.022;3.664;2024-01-10T10:51:34;-0.60;96.00
56044;DHT22;41912;51.022;3.664;2024-01-10T10:54:03;-0.60;96.00
56044;DHT22;41912;51.022;3.664;2024-01-10T10:56:32;-0.50;95.80
56044;DHT22;41912;51.022;3.664;2024-01-10T10:59:00;-0.40;95.80
56044;DHT22;41912;51.022;3.664;2024-01-10T11:01:26;-0.40;95.60
56044;DHT22;41912;51.022;3.664;2024-01-10T11:03:53;-0.30;95.40
56044;DHT22;41912;51.022;3.664;2024-01-10T11:06:21;-0.30;95.60
56044;DHT22;41912;51.022;3.664;2024-01-10T11:08:57;-0.30;95.20
56044;DHT22;41912;51.022;3.664;2024-01-10T11:19:54;-0.10;94.50
56044;DHT22;41912;51.022;3.664;2024-01-10T11:22:49;0.00;94.50
56044;DHT22;41912;51.022;3.664;2024-01-10T11:25:19;0.00;94.40
56044;DHT22;41912;51.022;3.664;2024-01-10T11:27:45;0.00;94.60
56044;DHT22;41912;51.022;3.664;2024-01-10T11:30:12;0.10;94.70
56044;DHT22;41912;51.022;3.664;2024-01-10T11:32:38;0.20;94.40
56044;DHT22;41912;51.022;3.664;2024-01-10T11:35:19;0.20;94.10
56044;DHT22;41912;51.022;3.664;2024-01-10T11:37:50;0.20;93.80
56044;DHT22;41912;51.022;3.664;2024-01-10T11:40:46;0.40;94.10
56044;DHT22;41912;51.022;3.664;2024-01-10T11:43:13;0.40;94.30
56044;DHT22;41912;51.022;3.664;2024-01-10T11:45:51;0.40;94.00
56044;DHT22;41912;51.022;3.664;2024-01-10T11:48:26;0.40;93.70
56044;DHT22;41912;51.022;3.664;2024-01-10T11:50:53;0.50;93.80
56044;DHT22;41912;51.022;3.664;2024-01-10T11:53:38;0.50;93.60
56044;DHT22;41912;51.022;3.664;2024-01-10T11:56:14;0.60;93.30
56044;DHT22;41912;51.022;3.664;2024-01-10T11:59:03;0.60;93.20
56044;DHT22;41912;51.022;3.664;2024-01-10T12:01:35;0.70;93.20
56044;DHT22;41912;51.022;3.664;2024-01-10T12:04:02;0.70;92.90
56044;DHT22;41912;51.022;3.664;2024-01-10T12:06:29;0.80;92.90
56044;DHT22;41912;51.022;3.664;2024-01-10T12:08:55;0.80;92.80
56044;DHT22;41912;51.022;3.664;2024-01-10T12:11:21;0.80;92.70
56044;DHT22;41912;51.022;3.664;2024-01-10T12:13:47;0.90;92.70
56044;DHT22;41912;51.022;3.664;2024-01-10T12:16:13;1.00;92.80
56044;DHT22;41912;51.022;3.664;2024-01-10T12:18:40;1.00;92.60
56044;DHT22;41912;51.022;3.664;2024-01-10T12:21:06;1.00;92.40
56044;DHT22;41912;51.022;3.664;2024-01-10T12:23:31;1.00;92.10
56044;DHT22;41912;51.022;3.664;2024-01-10T12:26:03;1.00;92.10
56044;DHT22;41912;51.022;3.664;2024-01-10T12:28:35;1.10;92.30
56044;DHT22;41912;51.022;3.664;2024-01-10T12:31:01;1.20;92.40
56044;DHT22;41912;51.022;3.664;2024-01-10T12:33:27;1.20;92.10
56044;DHT22;41912;51.022;3.664;2024-01-10T12:36:03;1.20;92.10
56044;DHT22;41912;51.022;3.664;2024-01-10T12:38:30;1.20;92.00
56044;DHT22;41912;51.022;3.664;2024-01-10T12:40:57;1.20;92.00
56044;DHT22;41912;51.022;3.664;2024-01-10T12:43:23;1.20;92.40
56044;DHT22;41912;51.022;3.664;2024-01-10T12:46:01;1.30;91.80
56044;DHT22;41912;51.022;3.664;2024-01-10T12:48:27;1.30;91.70
56044;DHT22;41912;51.022;3.664;2024-01-10T12:53:24;1.40;90.90
56044;DHT22;41912;51.022;3.664;2024-01-10T12:55:50;1.50;91.00
56044;DHT22;41912;51.022;3.664;2024-01-10T12:58:15;1.50;90.70
56044;DHT22;41912;51.022;3.664;2024-01-10T13:00:41;1.50;90.60
56044;DHT22;41912;51.022;3.664;2024-01-10T13:03:07;1.50;90.80
56044;DHT22;41912;51.022;3.664;2024-01-10T13:05:33;1.60;91.00
56044;DHT22;41912;51.022;3.664;2024-01-10T13:07:58;1.60;90.90
56044;DHT22;41912;51.022;3.664;2024-01-10T13:10:24;1.60;90.60
56044;DHT22;41912;51.022;3.664;2024-01-10T13:12:49;1.70;90.70
56044;DHT22;41912;51.022;3.664;2024-01-10T13:15:15;1.80;90.30
56044;DHT22;41912;51.022;3.664;2024-01-10T13:17:40;1.80;90.10
56044;DHT22;41912;51.022;3.664;2024-01-10T13:20:06;1.80;90.20
56044;DHT22;41912;51.022;3.664;2024-01-10T13:22:34;1.80;90.40
56044;DHT22;41912;51.022;3.664;2024-01-10T13:25:00;1.90;90.30
56044;DHT22;41912;51.022;3.664;2024-01-10T13:27:27;1.90;90.30
56044;DHT22;41912;51.022;3.664;2024-01-10T13:29:53;2.00;90.10
56044;DHT22;41912;51.022;3.664;2024-01-10T13:32:18;1.90;90.10
56044;DHT22;41912;51.022;3.664;2024-01-10T13:34:44;1.90;90.20
56044;DHT22;41912;51.022;3.664;2024-01-10T13:37:10;2.00;90.10
56044;DHT22;41912;51.022;3.664;2024-01-10T13:39:37;2.00;89.90
56044;DHT22;41912;51.022;3.664;2024-01-10T13:42:03;1.90;89.10
56044;DHT22;41912;51.022;3.664;2024-01-10T13:44:29;1.90;89.80
56044;DHT22;41912;51.022;3.664;2024-01-10T13:46:55;1.90;90.00
56044;DHT22;41912;51.022;3.664;2024-01-10T13:49:21;1.90;90.00
56044;DHT22;41912;51.022;3.664;2024-01-10T13:51:47;1.90;90.00
56044;DHT22;41912;51.022;3.664;2024-01-10T13:54:12;1.90;89.40
56044;DHT22;41912;51.022;3.664;2024-01-10T13:56:38;2.00;89.60
56044;DHT22;41912;51.022;3.664;2024-01-10T13:59:05;2.10;90.00
56044;DHT22;41912;51.022;3.664;2024-01-10T14:01:30;2.10;90.00
56044;DHT22;41912;51.022;3.664;2024-01-10T14:03:57;2.10;89.60
56044;DHT22;41912;51.022;3.664;2024-01-10T14:06:22;2.20;89.80
56044;DHT22;41912;51.022;3.664;2024-01-10T14:08:48;2.10;89.80
56044;DHT22;41912;51.022;3.664;2024-01-10T14:11:14;2.20;89.60
56044;DHT22;41912;51.022;3.664;2024-01-10T14:13:40;2.20;89.80
56044;DHT22;41912;51.022;3.664;2024-01-10T14:16:06;2.20;89.80
56044;DHT22;41912;51.022;3.664;2024-01-10T14:18:31;2.20;89.90
56044;DHT22;41912;51.022;3.664;2024-01-10T14:20:57;2.20;90.00
56044;DHT22;41912;51.022;3.664;2024-01-10T14:23:22;2.20;89.70
56044;DHT22;41912;51.022;3.664;2024-01-10T14:25:48;2.20;90.00
56044;DHT22;41912;51.022;3.664;2024-01-10T14:28:14;2.20;90.20
56044;DHT22;41912;51.022;3.664;2024-01-10T14:30:39;2.20;90.20
56044;DHT22;41912;51.022;3.664;2024-01-10T14:33:06;2.30;90.40
56044;DHT22;41912;51.022;3.664;2024-01-10T14:35:31;2.50;90.30
56044;DHT22;41912;51.022;3.664;2024-01-10T14:37:57;2.60;90.10
56044;DHT22;41912;51.022;3.664;2024-01-10T14:40:22;3.10;89.60
56044;DHT22;41912;51.022;3.664;2024-01-10T14:42:49;3.50;86.70
56044;DHT22;41912;51.022;3.664;2024-01-10T14:45:15;3.70;85.60
56044;DHT22;41912;51.022;3.664;2024-01-10T14:47:41;3.80;85.00
56044;DHT22;41912;51.022;3.664;2024-01-10T14:50:07;4.20;85.10
56044;DHT22;41912;51.022;3.664;2024-01-10T14:52:32;4.60;83.70
56044;DHT22;41912;51.022;3.664;2024-01-10T14:54:58;4.80;82.50
56044;DHT22;41912;51.022;3.664;2024-01-10T14:57:24;4.80;82.20
56044;DHT22;41912;51.022;3.664;2024-01-10T14:59:49;4.70;82.20
56044;DHT22;41912;51.022;3.664;2024-01-10T15:02:16;4.40;82.90
56044;DHT22;41912;51.022;3.664;2024-01-10T15:04:44;4.30;83.20
56044;DHT22;41912;51.022;3.664;2024-01-10T15:07:10;4.10;83.60
56044;DHT22;41912;51.022;3.664;2024-01-10T15:09:36;3.90;84.40
56044;DHT22;41912;51.022;3.664;2024-01-10T15:12:06;3.80;84.40
56044;DHT22;41912;51.022;3.664;2024-01-10T15:14:36;3.70;85.10
56044;DHT22;41912;51.022;3.664;2024-01-10T15:17:04;3.50;85.00
56044;DHT22;41912;51.022;3.664;2024-01-10T15:19:33;3.40;85.70
56044;DHT22;41912;51.022;3.664;2024-01-10T15:21:59;3.30;85.80
56044;DHT22;41912;51.022;3.664;2024-01-10T15:24:25;3.30;85.30
56044;DHT22;41912;51.022;3.664;2024-01-10T15:26:51;3.30;85.70
56044;DHT22;41912;51.022;3.664;2024-01-10T15:29:17;3.20;85.40
56044;DHT22;41912;51.022;3.664;2024-01-10T15:31:43;3.10;85.90
56044;DHT22;41912;51.022;3.664;2024-01-10T15:34:09;3.30;86.00
56044;DHT22;41912;51.022;3.664;2024-01-10T15:36:42;3.50;85.50
56044;DHT22;41912;51.022;3.664;2024-01-10T15:39:07;3.40;85.30
56044;DHT22;41912;51.022;3.664;2024-01-10T15:41:33;3.20;85.60
56044;DHT22;41912;51.022;3.664;2024-01-10T15:43:59;3.00;86.20